Terminal Aerodrome Forecast
Issued by NWS

Home | Current Version | Previous Version | Text Only | Print | Product List | Glossary On
Versions: 1 2 3 4 5 6 7 8 9 10 11 12 13 14 15 16 17 18 19 20 21 22 23 24 25
001
FTUS43 KICT 080538
TAFHUT
TAF
KHUT 080538Z 0806/0906 17009KT P6SM BKN200 WS020/21040KT
     FM081600 25005KT P6SM OVC180
     FM081800 VRB03KT P6SM OVC150=

USA.gov is the U.S. government's official web portal to all federal, state and local government web resources and services.